Terminal Aerodrome Forecast
Issued by NWS

Home | Current Version | Previous Version | Text Only | Print | Product List | Glossary On
Versions: 1 2 3 4 5 6 7 8 9 10 11 12 13 14 15
000
FTUS43 KMQT 242333
TAFSAW
TAF
KSAW 242333Z 2500/2524 18010KT P6SM BKN070
     FM250400 18008KT P6SM -SHRA OVC030
     FM250600 16007KT 5SM -SHRA OVC010
     FM250800 12006KT 2SM -SHRA BR OVC004
     FM252200 21007KT P6SM BKN008=

USA.gov is the U.S. government's official web portal to all federal, state and local government web resources and services.